createdAt,value
2022-11-05T00:02:50.442Z,2.30
2022-11-05T00:05:44.174Z,2.97
2022-11-05T00:08:37.653Z,3.83
2022-11-05T00:11:17.907Z,2.23
2022-11-05T00:14:11.465Z,3.80
2022-11-05T00:16:46.325Z,2.97
2022-11-05T00:19:21.172Z,3.67
2022-11-05T00:22:14.573Z,2.80
2022-11-05T00:25:08.045Z,4.47
2022-11-05T00:27:45.308Z,2.47
2022-11-05T00:30:25.703Z,2.87
2022-11-05T00:33:04.688Z,3.93
2022-11-05T00:35:39.512Z,5.67
2022-11-05T00:38:14.576Z,3.60
2022-11-05T00:40:49.395Z,3.43
2022-11-05T00:43:43.097Z,3.80
2022-11-05T00:46:17.991Z,3.40
2022-11-05T00:49:11.589Z,2.70
2022-11-05T00:51:46.458Z,5.30
2022-11-05T00:54:21.313Z,6.10
2022-11-05T00:56:59.421Z,2.90
2022-11-05T00:59:38.327Z,4.03
2022-11-05T01:02:13.296Z,4.53
2022-11-05T01:04:48.251Z,3.23
2022-11-05T01:07:23.112Z,2.97
2022-11-05T01:09:58.019Z,2.23
2022-11-05T01:12:33.066Z,2.80
2022-11-05T01:15:08.669Z,2.30
2022-11-05T01:17:43.583Z,2.07
2022-11-05T01:20:18.487Z,2.30
2022-11-05T01:22:53.347Z,3.77
2022-11-05T01:25:28.337Z,2.00
2022-11-05T01:28:04.196Z,2.37
2022-11-05T01:30:39.763Z,2.00
2022-11-05T01:33:14.844Z,2.00
2022-11-05T01:35:51.805Z,2.03
2022-11-05T01:38:26.694Z,2.27
2022-11-05T01:41:01.732Z,2.43
2022-11-05T01:43:52.175Z,2.20
2022-11-05T01:46:39.848Z,2.33
2022-11-05T01:49:33.363Z,2.03
2022-11-05T01:52:08.204Z,1.83
2022-11-05T01:54:43.777Z,3.33
2022-11-05T01:57:18.835Z,2.03
2022-11-05T01:59:58.637Z,1.90
2022-11-05T02:02:33.765Z,2.17
2022-11-05T02:05:12.230Z,1.93
2022-11-05T02:07:48.369Z,2.13
2022-11-05T02:10:23.935Z,2.37
2022-11-05T02:12:59.336Z,2.40
2022-11-05T02:15:52.983Z,2.33
2022-11-05T02:18:56.635Z,1.80
2022-11-05T02:21:56.028Z,2.60
2022-11-05T02:25:04.534Z,2.40
2022-11-05T02:28:27.175Z,2.50
2022-11-05T02:31:17.520Z,3.00
2022-11-05T02:34:12.748Z,2.13
2022-11-05T02:36:58.391Z,2.50
2022-11-05T02:40:20.677Z,4.23
2022-11-05T02:43:03.574Z,2.33
2022-11-05T02:46:06.088Z,2.27
2022-11-05T02:49:09.030Z,2.40
2022-11-05T02:51:59.249Z,2.43
2022-11-05T02:54:50.514Z,2.10
2022-11-05T02:57:29.187Z,3.83
2022-11-05T03:00:35.072Z,2.10
2022-11-05T03:03:35.942Z,2.73
2022-11-05T03:06:13.451Z,2.20
2022-11-05T03:09:36.167Z,2.00
2022-11-05T03:12:43.335Z,2.20
2022-11-05T03:15:47.625Z,2.57
2022-11-05T03:19:06.961Z,2.20
2022-11-05T03:21:56.658Z,2.37
2022-11-05T03:24:37.485Z,2.40
2022-11-05T03:27:20.511Z,2.50
2022-11-05T03:30:06.764Z,2.90
2022-11-05T03:32:49.756Z,2.63
2022-11-05T03:35:30.732Z,2.47
2022-11-05T03:38:15.634Z,2.77
2022-11-05T03:40:55.547Z,2.87
2022-11-05T03:43:35.157Z,2.70
2022-11-05T03:46:17.054Z,2.63
2022-11-05T03:48:55.910Z,2.43
2022-11-05T03:52:17.489Z,2.47
2022-11-05T03:54:52.522Z,2.70
2022-11-05T03:57:33.077Z,2.67
2022-11-05T04:00:10.260Z,2.47
2022-11-05T04:02:47.927Z,2.47
2022-11-05T04:05:23.035Z,4.33
2022-11-05T04:08:16.251Z,3.00
2022-11-05T04:11:09.740Z,2.60
2022-11-05T04:13:44.617Z,3.77
2022-11-05T04:16:37.790Z,4.03
2022-11-05T04:19:12.622Z,2.80
2022-11-05T04:22:06.000Z,3.57
2022-11-05T04:24:40.931Z,2.53
2022-11-05T04:27:15.886Z,3.80
2022-11-05T04:30:09.213Z,4.50
2022-11-05T04:33:06.299Z,5.70
2022-11-05T04:35:47.360Z,6.03
2022-11-05T04:38:22.290Z,5.23
2022-11-05T04:41:16.461Z,5.73
2022-11-05T04:43:51.351Z,5.97
2022-11-05T04:46:26.265Z,6.40
2022-11-05T04:49:01.192Z,6.23
2022-11-05T04:51:36.098Z,7.50
2022-11-05T04:54:11.118Z,5.83
2022-11-05T04:56:46.042Z,6.40
2022-11-05T04:59:20.986Z,7.10
2022-11-05T05:01:56.000Z,7.00
2022-11-05T05:04:30.966Z,7.17
2022-11-05T05:07:05.899Z,8.10
2022-11-05T05:09:40.817Z,8.00
2022-11-05T05:12:15.893Z,8.87
2022-11-05T05:14:50.796Z,8.57
2022-11-05T05:17:25.856Z,10.23
2022-11-05T05:20:19.197Z,9.57
2022-11-05T05:22:55.112Z,11.30
2022-11-05T05:25:30.263Z,9.50
2022-11-05T05:28:06.149Z,9.70
2022-11-05T05:30:41.066Z,9.70
2022-11-05T05:33:16.937Z,11.13
2022-11-05T05:35:51.862Z,12.60
2022-11-05T05:38:26.831Z,9.37
2022-11-05T05:41:01.758Z,9.57
2022-11-05T05:43:36.713Z,10.03
2022-11-05T05:46:14.875Z,10.23
2022-11-05T05:48:51.742Z,10.43
2022-11-05T05:51:26.671Z,10.60
2022-11-05T05:54:01.504Z,10.97
2022-11-05T05:56:36.473Z,11.40
2022-11-05T05:59:12.239Z,11.90
2022-11-05T06:01:47.370Z,14.47
2022-11-05T06:04:22.407Z,11.00
2022-11-05T06:06:57.290Z,13.60
2022-11-05T06:09:32.153Z,14.60
2022-11-05T06:12:07.218Z,11.90
2022-11-05T06:14:42.177Z,12.50
2022-11-05T06:17:17.110Z,14.33
2022-11-05T06:19:52.138Z,12.80
2022-11-05T06:22:27.036Z,17.40
2022-11-05T06:25:01.978Z,16.57
2022-11-05T06:27:36.895Z,16.40
2022-11-05T06:30:12.184Z,16.50
2022-11-05T06:32:47.776Z,16.80
2022-11-05T06:35:22.764Z,17.33
2022-11-05T06:38:03.715Z,17.90
2022-11-05T06:40:38.699Z,17.27
2022-11-05T06:43:14.157Z,16.70
2022-11-05T06:45:49.459Z,20.03
2022-11-05T06:48:25.388Z,18.40
2022-11-05T06:51:00.526Z,20.20
2022-11-05T06:53:36.561Z,21.00
2022-11-05T06:56:11.523Z,21.33
2022-11-05T06:58:46.485Z,19.57
2022-11-05T07:01:21.486Z,19.50
2022-11-05T07:03:56.455Z,19.13
2022-11-05T07:06:36.703Z,15.70
2022-11-05T07:09:12.382Z,17.20
2022-11-05T07:11:47.334Z,21.33
2022-11-05T07:14:22.441Z,22.03
2022-11-05T07:16:57.782Z,16.93
2022-11-05T07:19:32.765Z,16.90
2022-11-05T07:22:07.805Z,17.83
2022-11-05T07:24:43.666Z,18.47
2022-11-05T07:27:18.611Z,19.10
2022-11-05T07:29:53.731Z,17.20
2022-11-05T07:32:28.624Z,14.93
2022-11-05T07:35:04.020Z,16.37
2022-11-05T07:37:47.640Z,16.53
2022-11-05T07:40:25.780Z,18.67
2022-11-05T07:43:02.063Z,16.30
2022-11-05T07:45:36.997Z,16.37
2022-11-05T07:48:11.916Z,17.73
2022-11-05T07:50:46.849Z,15.10
2022-11-05T07:53:21.738Z,16.43
2022-11-05T07:55:58.843Z,15.87
2022-11-05T07:58:35.119Z,17.70
2022-11-05T08:01:10.202Z,18.83
2022-11-05T08:03:45.310Z,19.10
2022-11-05T08:06:20.242Z,16.53
2022-11-05T08:08:55.251Z,16.93
2022-11-05T08:11:30.161Z,18.37
2022-11-05T08:14:05.145Z,17.60
2022-11-05T08:16:40.129Z,16.13
2022-11-05T08:19:15.047Z,13.83
2022-11-05T08:21:50.196Z,12.47
2022-11-05T08:24:25.147Z,7.83
2022-11-05T08:27:00.042Z,12.17
2022-11-05T08:29:34.965Z,10.67
2022-11-05T08:32:09.965Z,5.83
2022-11-05T08:34:44.888Z,6.77
2022-11-05T08:37:19.755Z,10.37
2022-11-05T08:39:54.714Z,6.07
2022-11-05T08:42:30.624Z,5.20
2022-11-05T08:45:06.235Z,6.20
2022-11-05T08:47:41.132Z,6.10
2022-11-05T08:50:16.808Z,5.10
2022-11-05T08:52:51.679Z,5.73
2022-11-05T08:55:27.642Z,4.37
2022-11-05T08:58:07.579Z,4.63
2022-11-05T09:00:45.701Z,3.87
2022-11-05T09:03:20.649Z,6.43
2022-11-05T09:05:55.661Z,5.27
2022-11-05T09:08:31.675Z,3.37
2022-11-05T09:11:07.640Z,4.10
2022-11-05T09:13:42.673Z,4.27
2022-11-05T09:16:22.479Z,3.70
2022-11-05T09:18:57.413Z,3.20
2022-11-05T09:21:32.805Z,4.00
2022-11-05T09:24:08.104Z,4.13
2022-11-05T09:26:43.106Z,4.47
2022-11-05T09:29:17.977Z,5.03
2022-11-05T09:31:52.847Z,8.10
2022-11-05T09:34:28.772Z,5.90
2022-11-05T09:37:04.075Z,7.73
2022-11-05T09:39:40.001Z,6.80
2022-11-05T09:42:18.174Z,6.93
2022-11-05T09:44:59.445Z,7.60
2022-11-05T09:47:40.573Z,7.73
2022-11-05T09:50:32.975Z,7.57
2022-11-05T09:53:13.369Z,11.63
2022-11-05T09:56:00.365Z,11.70
2022-11-05T09:58:43.583Z,10.77
2022-11-05T10:01:26.165Z,10.53
2022-11-05T10:04:07.173Z,10.70
2022-11-05T10:06:51.854Z,7.73
2022-11-05T10:09:51.608Z,9.30
2022-11-05T10:12:31.104Z,11.13
2022-11-05T10:16:09.916Z,11.30
2022-11-05T10:18:52.578Z,10.50
2022-11-05T10:21:51.577Z,10.60
2022-11-05T10:24:23.483Z,10.80
2022-11-05T10:26:58.678Z,11.10
2022-11-05T10:29:34.958Z,12.17
2022-11-05T10:32:35.994Z,11.00
2022-11-05T10:35:18.816Z,11.23
2022-11-05T10:37:53.747Z,11.13
2022-11-05T10:40:42.406Z,8.90
2022-11-05T10:43:27.457Z,10.03
2022-11-05T10:46:30.342Z,10.40
2022-11-05T10:49:34.778Z,8.77
2022-11-05T10:52:23.965Z,9.67
2022-11-05T10:55:10.836Z,9.13
2022-11-05T10:57:49.436Z,11.30
2022-11-05T11:00:28.344Z,10.87
2022-11-05T11:03:06.453Z,8.77
2022-11-05T11:05:41.494Z,9.60
2022-11-05T11:08:24.174Z,10.70
2022-11-05T11:11:03.935Z,10.43
2022-11-05T11:14:03.168Z,9.60
2022-11-05T11:16:57.342Z,11.17
2022-11-05T11:19:35.143Z,10.33
2022-11-05T11:22:15.861Z,10.53
2022-11-05T11:24:54.054Z,10.23
2022-11-05T11:27:33.434Z,9.57
2022-11-05T11:30:18.448Z,8.70
2022-11-05T11:33:07.172Z,7.83
2022-11-05T11:35:46.431Z,8.90
2022-11-05T11:38:33.955Z,6.40
2022-11-05T11:41:17.773Z,8.10
2022-11-05T11:44:09.665Z,8.07
2022-11-05T11:46:49.930Z,7.27
2022-11-05T11:49:56.196Z,8.90
2022-11-05T11:52:35.353Z,7.27
2022-11-05T11:55:13.260Z,11.37
2022-11-05T11:58:06.616Z,6.63
2022-11-05T12:00:46.816Z,6.73
2022-11-05T12:03:50.061Z,6.57
2022-11-05T12:07:04.858Z,6.93
2022-11-05T12:10:20.885Z,8.47
2022-11-05T12:13:20.991Z,7.13
2022-11-05T12:16:05.108Z,7.87
2022-11-05T12:18:58.079Z,10.13
2022-11-05T12:21:52.145Z,9.13
2022-11-05T12:24:58.021Z,8.50
2022-11-05T12:28:01.445Z,6.67
2022-11-05T12:31:23.004Z,7.23
2022-11-05T12:34:17.613Z,6.23
2022-11-05T12:37:28.470Z,5.80
2022-11-05T12:40:51.671Z,5.40
2022-11-05T12:44:08.134Z,5.27
2022-11-05T12:46:54.635Z,4.73
2022-11-05T12:50:01.625Z,3.90
2022-11-05T12:53:04.865Z,4.00
2022-11-05T12:55:48.851Z,3.60
2022-11-05T12:58:48.780Z,3.27
2022-11-05T13:01:34.583Z,3.83
2022-11-05T13:04:39.718Z,3.00
2022-11-05T13:07:27.496Z,3.10
2022-11-05T13:10:35.513Z,2.80
2022-11-05T13:13:26.366Z,3.20
2022-11-05T13:16:15.798Z,2.70
2022-11-05T13:19:12.149Z,4.20
2022-11-05T13:22:11.930Z,2.33
2022-11-05T13:24:51.649Z,3.00
2022-11-05T13:28:04.985Z,3.00
2022-11-05T13:30:46.982Z,4.07
2022-11-05T13:33:37.736Z,3.73
2022-11-05T13:36:55.480Z,3.73
2022-11-05T13:39:43.057Z,4.70
2022-11-05T13:42:54.428Z,3.30
2022-11-05T13:45:47.657Z,3.37
2022-11-05T13:48:41.520Z,4.60
2022-11-05T13:52:08.297Z,3.23
2022-11-05T13:54:43.105Z,3.27
2022-11-05T13:57:48.048Z,3.83
2022-11-05T14:00:26.989Z,3.33
2022-11-05T14:03:20.212Z,3.67
2022-11-05T14:06:07.930Z,3.23
2022-11-05T14:08:46.714Z,2.77
2022-11-05T14:11:26.173Z,3.40
2022-11-05T14:14:17.293Z,4.73
2022-11-05T14:17:13.852Z,5.10
2022-11-05T14:20:04.456Z,4.57
2022-11-05T14:22:41.770Z,4.83
2022-11-05T14:25:19.770Z,4.10
2022-11-05T14:27:58.160Z,4.20
2022-11-05T14:30:47.092Z,4.27
2022-11-05T14:33:25.016Z,6.33
2022-11-05T14:36:21.419Z,5.60
2022-11-05T14:39:12.916Z,4.70
2022-11-05T14:42:16.865Z,6.33
2022-11-05T14:45:09.887Z,5.90
2022-11-05T14:47:55.580Z,4.20
2022-11-05T14:50:39.528Z,4.80
2022-11-05T14:53:38.281Z,3.90
2022-11-05T14:56:17.560Z,5.60
2022-11-05T14:59:24.381Z,4.57
2022-11-05T15:02:14.616Z,3.33
2022-11-05T15:04:52.658Z,3.63
2022-11-05T15:07:37.472Z,7.77
2022-11-05T15:10:17.569Z,4.87
2022-11-05T15:13:01.773Z,7.47
2022-11-05T15:15:44.232Z,4.37
2022-11-05T15:18:33.429Z,4.93
2022-11-05T15:21:15.123Z,4.30
2022-11-05T15:23:56.313Z,8.93
2022-11-05T15:27:18.572Z,5.80
2022-11-05T15:29:53.908Z,5.07
2022-11-05T15:32:28.946Z,4.23
2022-11-05T15:35:19.093Z,4.23
2022-11-05T15:38:02.023Z,4.27
2022-11-05T15:40:37.602Z,6.73
2022-11-05T15:43:19.404Z,4.20
2022-11-05T15:46:05.025Z,4.30
2022-11-05T15:48:40.448Z,4.37
2022-11-05T15:51:16.977Z,7.63
2022-11-05T15:56:58.468Z,3.53
2022-11-05T15:59:35.044Z,4.90
2022-11-05T16:02:28.717Z,5.83
2022-11-05T16:05:11.825Z,4.80
2022-11-05T16:07:48.268Z,5.57
2022-11-05T16:10:38.108Z,4.03
2022-11-05T16:13:41.062Z,5.50
2022-11-05T16:16:16.018Z,3.40
2022-11-05T16:18:51.493Z,4.00
2022-11-05T16:21:26.502Z,4.43
2022-11-05T16:24:01.348Z,3.20
2022-11-05T16:29:55.469Z,5.10
2022-11-05T16:32:31.793Z,3.83
2022-11-05T16:35:15.716Z,6.17
2022-11-05T16:37:52.653Z,11.27
2022-11-05T16:40:27.824Z,4.13
2022-11-05T16:43:17.985Z,5.63
2022-11-05T16:46:01.007Z,5.90
2022-11-05T16:48:35.929Z,4.20
2022-11-05T16:51:11.988Z,3.53
2022-11-05T16:53:49.203Z,7.27
2022-11-05T16:56:24.122Z,4.60
2022-11-05T16:58:59.686Z,5.87
2022-11-05T17:01:35.900Z,7.27
2022-11-05T17:04:13.416Z,6.60
2022-11-05T17:06:49.850Z,4.83
2022-11-05T17:09:24.815Z,4.73
2022-11-05T17:12:00.724Z,5.87
2022-11-05T17:14:35.691Z,6.20
2022-11-05T17:17:10.855Z,7.57
2022-11-05T17:19:46.141Z,5.43
2022-11-05T17:22:21.138Z,6.33
2022-11-05T17:24:56.104Z,7.17
2022-11-05T17:27:30.959Z,5.97
2022-11-05T17:30:07.079Z,7.30
2022-11-05T17:32:42.035Z,7.00
2022-11-05T17:35:17.410Z,7.67
2022-11-05T17:37:52.351Z,6.20
2022-11-05T17:40:28.375Z,5.00
2022-11-05T17:43:04.172Z,7.87
2022-11-05T17:45:45.479Z,6.37
2022-11-05T17:48:23.688Z,6.53
2022-11-05T17:50:58.609Z,6.80
2022-11-05T17:53:33.448Z,7.70
2022-11-05T17:56:13.773Z,7.40
2022-11-05T17:58:48.794Z,11.23
2022-11-05T18:01:30.764Z,10.47
2022-11-05T18:04:08.846Z,9.43
2022-11-05T18:06:44.066Z,9.95
2022-11-05T18:09:20.347Z,10.77
2022-11-05T18:11:56.748Z,11.50
2022-11-05T18:14:31.615Z,12.00
2022-11-05T18:17:06.592Z,8.87
2022-11-05T18:19:41.500Z,8.70
2022-11-05T18:22:18.433Z,11.10
2022-11-05T18:24:54.729Z,11.63
2022-11-05T18:27:29.680Z,10.73
2022-11-05T18:30:05.097Z,9.63
2022-11-05T18:32:40.129Z,9.00
2022-11-05T18:35:15.161Z,13.23
2022-11-05T18:37:50.124Z,11.37
2022-11-05T18:40:25.112Z,11.10
2022-11-05T18:43:00.054Z,12.43
2022-11-05T18:45:35.281Z,10.90
2022-11-05T18:48:11.018Z,12.97
2022-11-05T18:50:47.558Z,12.80
2022-11-05T18:53:22.447Z,12.50
2022-11-05T18:55:57.312Z,14.37
2022-11-05T18:58:32.249Z,12.70
2022-11-05T19:01:20.485Z,14.97
2022-11-05T19:03:57.128Z,12.73
2022-11-05T19:06:32.198Z,19.30
2022-11-05T19:09:09.869Z,17.43
2022-11-05T19:11:44.772Z,9.63
2022-11-05T19:14:19.808Z,11.60
2022-11-05T19:16:54.688Z,10.40
2022-11-05T19:19:29.689Z,14.00
2022-11-05T19:22:04.878Z,8.97
2022-11-05T19:24:39.801Z,9.60
2022-11-05T19:27:14.643Z,10.60
2022-11-05T19:29:49.725Z,13.50
2022-11-05T19:32:24.629Z,9.93
2022-11-05T19:34:59.509Z,10.93
2022-11-05T19:37:34.438Z,8.73
2022-11-05T19:40:10.780Z,7.60
2022-11-05T19:42:46.839Z,8.33
2022-11-05T19:45:43.530Z,10.20
2022-11-05T19:48:19.846Z,9.10
2022-11-05T19:50:55.156Z,12.90
2022-11-05T19:53:30.039Z,13.23
2022-11-05T19:56:11.761Z,12.03
2022-11-05T19:58:49.097Z,18.93
2022-11-05T20:01:26.423Z,11.97
2022-11-05T20:04:02.684Z,13.97
2022-11-05T20:06:40.050Z,12.80
2022-11-05T20:09:21.530Z,11.47
2022-11-05T20:11:57.784Z,15.33
2022-11-05T20:14:33.332Z,12.80
2022-11-05T20:17:08.309Z,12.67
2022-11-05T20:19:43.209Z,9.77
2022-11-05T20:22:18.089Z,11.80
2022-11-05T20:24:52.956Z,11.17
2022-11-05T20:27:28.760Z,10.13
2022-11-05T20:30:04.360Z,11.37
2022-11-05T20:32:39.253Z,10.00
2022-11-05T20:35:14.143Z,12.53
2022-11-05T20:37:53.764Z,11.93
2022-11-05T20:40:29.111Z,16.40
2022-11-05T20:43:04.231Z,10.90
2022-11-05T20:45:39.193Z,12.60
2022-11-05T20:48:14.425Z,12.50
2022-11-05T20:50:52.822Z,10.93
2022-11-05T20:53:27.642Z,11.93
2022-11-05T20:56:07.630Z,10.60
2022-11-05T20:58:42.805Z,12.07
2022-11-05T21:01:18.966Z,12.83
2022-11-05T21:03:55.489Z,12.70
2022-11-05T21:06:30.639Z,12.70
2022-11-05T21:09:06.041Z,15.47
2022-11-05T21:11:59.550Z,12.63
2022-11-05T21:14:34.398Z,14.70
2022-11-05T21:17:11.871Z,14.40
2022-11-05T21:19:47.007Z,15.23
2022-11-05T21:22:21.834Z,12.47
2022-11-05T21:24:56.863Z,16.30
2022-11-05T21:27:31.684Z,12.33
2022-11-05T21:30:07.560Z,14.87
2022-11-05T21:32:42.386Z,17.97
2022-11-05T21:35:17.360Z,11.77
2022-11-05T21:37:52.223Z,13.80
2022-11-05T21:40:27.112Z,11.27
2022-11-05T21:43:02.151Z,14.67
2022-11-05T21:45:45.114Z,15.23
2022-11-05T21:48:19.974Z,12.80
2022-11-05T21:51:13.288Z,12.13
2022-11-05T21:54:06.726Z,16.47
2022-11-05T21:57:03.519Z,13.70
2022-11-05T21:59:51.390Z,15.90
2022-11-05T22:02:30.817Z,15.20
2022-11-05T22:05:06.711Z,14.47
2022-11-05T22:07:41.613Z,15.17
2022-11-05T22:10:17.153Z,15.10
2022-11-05T22:12:51.975Z,13.07
2022-11-05T22:15:26.825Z,13.90
2022-11-05T22:18:01.692Z,13.57
2022-11-05T22:20:39.148Z,14.77
2022-11-05T22:23:14.005Z,16.40
2022-11-05T22:25:48.849Z,16.67
2022-11-05T22:28:23.721Z,18.13
2022-11-05T22:30:58.627Z,17.53
2022-11-05T22:33:33.455Z,15.87
2022-11-05T22:36:09.069Z,15.20
2022-11-05T22:38:44.122Z,17.30
2022-11-05T22:41:22.440Z,18.50
2022-11-05T22:43:58.049Z,20.73
2022-11-05T22:46:33.195Z,18.13
2022-11-05T22:49:08.368Z,19.33
2022-11-05T22:51:43.907Z,16.93
2022-11-05T22:54:18.824Z,16.10
2022-11-05T22:56:53.823Z,15.50
2022-11-05T22:59:28.762Z,19.00
2022-11-05T23:02:09.244Z,18.53
2022-11-05T23:04:44.794Z,16.10
2022-11-05T23:07:38.122Z,17.87
2022-11-05T23:10:31.384Z,15.83
2022-11-05T23:13:07.585Z,19.70
2022-11-05T23:16:00.805Z,15.77
2022-11-05T23:18:54.500Z,15.07
2022-11-05T23:21:48.123Z,17.03
2022-11-05T23:24:22.976Z,15.87
2022-11-05T23:26:57.975Z,16.70
2022-11-05T23:29:33.095Z,17.73
2022-11-05T23:32:28.137Z,19.40
2022-11-05T23:35:04.336Z,17.40
2022-11-05T23:37:58.125Z,15.63
2022-11-05T23:40:55.501Z,19.17
2022-11-05T23:43:49.092Z,19.70
2022-11-05T23:46:42.502Z,20.80
2022-11-05T23:49:17.957Z,18.00
2022-11-05T23:51:52.812Z,22.40
2022-11-05T23:54:27.761Z,19.90
2022-11-05T23:57:02.614Z,17.30
2022-11-05T23:59:37.465Z,17.40
